sensor_id;sensor_type;location;lat;lon;timestamp;P1;durP1;ratioP1;P2;durP2;ratioP2
6973;SDS011;3527;52.376;8.990;2023-12-20T00:02:09;11.27;;;4.03;;
6973;SDS011;3527;52.376;8.990;2023-12-20T00:04:36;10.10;;;4.37;;
6973;SDS011;3527;52.376;8.990;2023-12-20T00:07:03;15.17;;;4.67;;
6973;SDS011;3527;52.376;8.990;2023-12-20T00:09:29;17.40;;;5.37;;
6973;SDS011;3527;52.376;8.990;2023-12-20T00:11:56;14.27;;;5.50;;
6973;SDS011;3527;52.376;8.990;2023-12-20T00:14:23;13.10;;;5.07;;
6973;SDS011;3527;52.376;8.990;2023-12-20T00:16:50;13.80;;;5.30;;
6973;SDS011;3527;52.376;8.990;2023-12-20T00:19:16;13.43;;;5.63;;
6973;SDS011;3527;52.376;8.990;2023-12-20T00:21:43;12.93;;;4.83;;
6973;SDS011;3527;52.376;8.990;2023-12-20T00:24:10;13.00;;;4.47;;
6973;SDS011;3527;52.376;8.990;2023-12-20T00:26:36;13.47;;;5.63;;
6973;SDS011;3527;52.376;8.990;2023-12-20T00:29:03;15.03;;;5.47;;
6973;SDS011;3527;52.376;8.990;2023-12-20T00:31:30;13.97;;;4.93;;
6973;SDS011;3527;52.376;8.990;2023-12-20T00:33:56;21.53;;;5.30;;
6973;SDS011;3527;52.376;8.990;2023-12-20T00:36:24;17.00;;;5.63;;
6973;SDS011;3527;52.376;8.990;2023-12-20T00:38:50;13.97;;;4.87;;
6973;SDS011;3527;52.376;8.990;2023-12-20T00:41:20;9.23;;;4.37;;
6973;SDS011;3527;52.376;8.990;2023-12-20T00:43:47;12.57;;;4.50;;
6973;SDS011;3527;52.376;8.990;2023-12-20T00:46:13;12.27;;;4.63;;
6973;SDS011;3527;52.376;8.990;2023-12-20T00:48:40;15.17;;;4.73;;
6973;SDS011;3527;52.376;8.990;2023-12-20T00:51:08;12.80;;;4.40;;
6973;SDS011;3527;52.376;8.990;2023-12-20T00:53:35;12.80;;;4.10;;
6973;SDS011;3527;52.376;8.990;2023-12-20T00:56:02;14.20;;;4.27;;
6973;SDS011;3527;52.376;8.990;2023-12-20T00:58:30;14.60;;;4.50;;
6973;SDS011;3527;52.376;8.990;2023-12-20T01:00:57;11.83;;;4.00;;
6973;SDS011;3527;52.376;8.990;2023-12-20T01:03:24;11.97;;;3.97;;
6973;SDS011;3527;52.376;8.990;2023-12-20T01:05:51;12.57;;;4.57;;
6973;SDS011;3527;52.376;8.990;2023-12-20T01:08:18;15.07;;;5.33;;
6973;SDS011;3527;52.376;8.990;2023-12-20T01:10:44;10.83;;;4.30;;
6973;SDS011;3527;52.376;8.990;2023-12-20T01:13:13;19.90;;;4.50;;
6973;SDS011;3527;52.376;8.990;2023-12-20T01:15:40;9.73;;;4.17;;
6973;SDS011;3527;52.376;8.990;2023-12-20T01:18:06;11.53;;;4.80;;
6973;SDS011;3527;52.376;8.990;2023-12-20T01:20:33;11.10;;;5.30;;
6973;SDS011;3527;52.376;8.990;2023-12-20T01:23:00;15.73;;;5.27;;
6973;SDS011;3527;52.376;8.990;2023-12-20T01:25:27;16.17;;;5.97;;
6973;SDS011;3527;52.376;8.990;2023-12-20T01:27:53;11.57;;;5.77;;
6973;SDS011;3527;52.376;8.990;2023-12-20T01:30:20;10.13;;;4.93;;
6973;SDS011;3527;52.376;8.990;2023-12-20T01:32:47;13.07;;;5.23;;
6973;SDS011;3527;52.376;8.990;2023-12-20T01:35:13;17.10;;;6.33;;
6973;SDS011;3527;52.376;8.990;2023-12-20T01:37:41;14.30;;;5.47;;
6973;SDS011;3527;52.376;8.990;2023-12-20T01:40:08;16.93;;;6.83;;
6973;SDS011;3527;52.376;8.990;2023-12-20T01:42:35;18.47;;;6.37;;
6973;SDS011;3527;52.376;8.990;2023-12-20T01:45:02;19.00;;;6.37;;
6973;SDS011;3527;52.376;8.990;2023-12-20T01:47:29;16.27;;;5.97;;
6973;SDS011;3527;52.376;8.990;2023-12-20T01:49:55;12.23;;;5.80;;
6973;SDS011;3527;52.376;8.990;2023-12-20T01:52:23;13.67;;;5.47;;
6973;SDS011;3527;52.376;8.990;2023-12-20T01:54:52;18.17;;;6.13;;
6973;SDS011;3527;52.376;8.990;2023-12-20T01:57:21;18.53;;;6.10;;
6973;SDS011;3527;52.376;8.990;2023-12-20T01:59:47;12.47;;;5.53;;
6973;SDS011;3527;52.376;8.990;2023-12-20T02:02:14;15.47;;;5.80;;
6973;SDS011;3527;52.376;8.990;2023-12-20T02:04:41;13.27;;;5.40;;
6973;SDS011;3527;52.376;8.990;2023-12-20T02:07:08;19.20;;;6.63;;
6973;SDS011;3527;52.376;8.990;2023-12-20T02:09:35;15.97;;;6.07;;
6973;SDS011;3527;52.376;8.990;2023-12-20T02:12:01;13.77;;;4.97;;
6973;SDS011;3527;52.376;8.990;2023-12-20T02:14:28;19.37;;;5.43;;
6973;SDS011;3527;52.376;8.990;2023-12-20T02:16:55;13.33;;;4.43;;
6973;SDS011;3527;52.376;8.990;2023-12-20T02:19:21;13.07;;;4.50;;
6973;SDS011;3527;52.376;8.990;2023-12-20T02:21:48;12.50;;;4.73;;
6973;SDS011;3527;52.376;8.990;2023-12-20T02:24:15;12.67;;;4.57;;
6973;SDS011;3527;52.376;8.990;2023-12-20T02:26:41;13.63;;;4.60;;
6973;SDS011;3527;52.376;8.990;2023-12-20T02:29:14;14.43;;;4.97;;
6973;SDS011;3527;52.376;8.990;2023-12-20T02:31:40;15.97;;;4.17;;
6973;SDS011;3527;52.376;8.990;2023-12-20T02:34:07;13.37;;;4.60;;
6973;SDS011;3527;52.376;8.990;2023-12-20T02:36:34;16.67;;;4.53;;
6973;SDS011;3527;52.376;8.990;2023-12-20T02:39:00;19.23;;;4.87;;
6973;SDS011;3527;52.376;8.990;2023-12-20T02:41:27;16.33;;;4.10;;
6973;SDS011;3527;52.376;8.990;2023-12-20T02:43:53;11.47;;;3.93;;
6973;SDS011;3527;52.376;8.990;2023-12-20T02:46:20;11.07;;;4.33;;
6973;SDS011;3527;52.376;8.990;2023-12-20T02:48:47;8.67;;;3.80;;
6973;SDS011;3527;52.376;8.990;2023-12-20T02:51:14;15.47;;;4.43;;
6973;SDS011;3527;52.376;8.990;2023-12-20T02:53:41;12.93;;;3.77;;
6973;SDS011;3527;52.376;8.990;2023-12-20T02:56:07;10.03;;;3.60;;
6973;SDS011;3527;52.376;8.990;2023-12-20T02:58:34;14.23;;;4.27;;
6973;SDS011;3527;52.376;8.990;2023-12-20T03:01:01;12.83;;;3.43;;
6973;SDS011;3527;52.376;8.990;2023-12-20T03:03:28;8.67;;;3.17;;
6973;SDS011;3527;52.376;8.990;2023-12-20T03:05:55;14.60;;;3.80;;
6973;SDS011;3527;52.376;8.990;2023-12-20T03:08:22;9.67;;;3.53;;
6973;SDS011;3527;52.376;8.990;2023-12-20T03:10:48;13.60;;;3.23;;
6973;SDS011;3527;52.376;8.990;2023-12-20T03:13:15;15.13;;;3.57;;
6973;SDS011;3527;52.376;8.990;2023-12-20T03:15:42;14.13;;;3.67;;
6973;SDS011;3527;52.376;8.990;2023-12-20T03:18:09;15.13;;;4.07;;
6973;SDS011;3527;52.376;8.990;2023-12-20T03:20:35;7.33;;;3.00;;
6973;SDS011;3527;52.376;8.990;2023-12-20T03:23:02;10.23;;;3.43;;
6973;SDS011;3527;52.376;8.990;2023-12-20T03:25:29;7.63;;;2.93;;
6973;SDS011;3527;52.376;8.990;2023-12-20T03:27:56;10.90;;;3.03;;
6973;SDS011;3527;52.376;8.990;2023-12-20T03:30:22;17.23;;;3.30;;
6973;SDS011;3527;52.376;8.990;2023-12-20T03:32:49;17.63;;;3.53;;
6973;SDS011;3527;52.376;8.990;2023-12-20T03:35:16;13.57;;;3.80;;
6973;SDS011;3527;52.376;8.990;2023-12-20T03:37:42;14.83;;;4.13;;
6973;SDS011;3527;52.376;8.990;2023-12-20T03:40:10;15.80;;;3.67;;
6973;SDS011;3527;52.376;8.990;2023-12-20T03:42:36;11.70;;;3.90;;
6973;SDS011;3527;52.376;8.990;2023-12-20T03:45:03;14.60;;;4.30;;
6973;SDS011;3527;52.376;8.990;2023-12-20T03:47:30;12.27;;;3.93;;
6973;SDS011;3527;52.376;8.990;2023-12-20T03:49:57;12.50;;;3.80;;
6973;SDS011;3527;52.376;8.990;2023-12-20T03:52:23;14.63;;;4.00;;
6973;SDS011;3527;52.376;8.990;2023-12-20T03:54:50;18.27;;;4.23;;
6973;SDS011;3527;52.376;8.990;2023-12-20T03:57:17;13.23;;;4.03;;
6973;SDS011;3527;52.376;8.990;2023-12-20T03:59:44;18.67;;;5.10;;
6973;SDS011;3527;52.376;8.990;2023-12-20T04:02:10;16.77;;;5.50;;
6973;SDS011;3527;52.376;8.990;2023-12-20T04:04:37;17.47;;;5.20;;
6973;SDS011;3527;52.376;8.990;2023-12-20T04:07:04;15.20;;;4.57;;
6973;SDS011;3527;52.376;8.990;2023-12-20T04:09:30;15.33;;;4.70;;
6973;SDS011;3527;52.376;8.990;2023-12-20T04:11:57;12.87;;;4.63;;
6973;SDS011;3527;52.376;8.990;2023-12-20T04:14:24;17.33;;;5.30;;
6973;SDS011;3527;52.376;8.990;2023-12-20T04:16:51;11.53;;;5.63;;
6973;SDS011;3527;52.376;8.990;2023-12-20T04:19:18;13.00;;;5.30;;
6973;SDS011;3527;52.376;8.990;2023-12-20T04:21:47;14.60;;;4.73;;
6973;SDS011;3527;52.376;8.990;2023-12-20T04:24:14;15.10;;;5.03;;
6973;SDS011;3527;52.376;8.990;2023-12-20T04:26:41;19.63;;;5.07;;
6973;SDS011;3527;52.376;8.990;2023-12-20T04:29:08;16.27;;;5.10;;
6973;SDS011;3527;52.376;8.990;2023-12-20T04:31:34;18.40;;;5.70;;
6973;SDS011;3527;52.376;8.990;2023-12-20T04:34:02;18.00;;;5.03;;
6973;SDS011;3527;52.376;8.990;2023-12-20T04:36:29;17.00;;;5.77;;
6973;SDS011;3527;52.376;8.990;2023-12-20T04:38:56;12.93;;;5.57;;
6973;SDS011;3527;52.376;8.990;2023-12-20T04:41:23;14.43;;;4.63;;
6973;SDS011;3527;52.376;8.990;2023-12-20T04:43:49;21.07;;;4.70;;
6973;SDS011;3527;52.376;8.990;2023-12-20T04:46:16;15.30;;;4.67;;
6973;SDS011;3527;52.376;8.990;2023-12-20T04:48:43;21.63;;;5.13;;
6973;SDS011;3527;52.376;8.990;2023-12-20T04:51:09;16.37;;;4.97;;
6973;SDS011;3527;52.376;8.990;2023-12-20T04:53:36;22.70;;;5.37;;
6973;SDS011;3527;52.376;8.990;2023-12-20T04:56:03;14.27;;;4.53;;
6973;SDS011;3527;52.376;8.990;2023-12-20T04:58:29;16.00;;;4.50;;
6973;SDS011;3527;52.376;8.990;2023-12-20T05:00:56;18.17;;;5.53;;
6973;SDS011;3527;52.376;8.990;2023-12-20T05:03:23;14.47;;;4.53;;
6973;SDS011;3527;52.376;8.990;2023-12-20T05:05:50;19.60;;;5.80;;
6973;SDS011;3527;52.376;8.990;2023-12-20T05:08:16;22.80;;;5.23;;
6973;SDS011;3527;52.376;8.990;2023-12-20T05:10:43;15.40;;;5.90;;
6973;SDS011;3527;52.376;8.990;2023-12-20T05:13:10;18.27;;;5.90;;
6973;SDS011;3527;52.376;8.990;2023-12-20T05:15:37;21.20;;;5.53;;
6973;SDS011;3527;52.376;8.990;2023-12-20T05:18:04;14.80;;;4.97;;
6973;SDS011;3527;52.376;8.990;2023-12-20T05:20:31;17.47;;;4.77;;
6973;SDS011;3527;52.376;8.990;2023-12-20T05:22:57;11.97;;;4.87;;
6973;SDS011;3527;52.376;8.990;2023-12-20T05:25:24;19.57;;;5.03;;
6973;SDS011;3527;52.376;8.990;2023-12-20T05:27:51;12.13;;;4.70;;
6973;SDS011;3527;52.376;8.990;2023-12-20T05:30:18;18.63;;;4.53;;
6973;SDS011;3527;52.376;8.990;2023-12-20T05:32:45;19.40;;;5.37;;
6973;SDS011;3527;52.376;8.990;2023-12-20T05:35:12;17.50;;;4.70;;
6973;SDS011;3527;52.376;8.990;2023-12-20T05:37:38;17.73;;;5.57;;
6973;SDS011;3527;52.376;8.990;2023-12-20T05:40:05;16.53;;;5.60;;
6973;SDS011;3527;52.376;8.990;2023-12-20T05:42:32;22.80;;;5.93;;
6973;SDS011;3527;52.376;8.990;2023-12-20T05:44:59;22.90;;;6.67;;
6973;SDS011;3527;52.376;8.990;2023-12-20T05:47:25;14.20;;;4.87;;
6973;SDS011;3527;52.376;8.990;2023-12-20T05:49:52;15.70;;;5.20;;
6973;SDS011;3527;52.376;8.990;2023-12-20T05:52:19;19.50;;;6.87;;
6973;SDS011;3527;52.376;8.990;2023-12-20T05:54:46;25.10;;;6.23;;
6973;SDS011;3527;52.376;8.990;2023-12-20T05:57:13;21.00;;;6.03;;
6973;SDS011;3527;52.376;8.990;2023-12-20T05:59:39;24.13;;;6.30;;
6973;SDS011;3527;52.376;8.990;2023-12-20T06:02:06;17.20;;;5.40;;
6973;SDS011;3527;52.376;8.990;2023-12-20T06:04:33;19.23;;;5.87;;
6973;SDS011;3527;52.376;8.990;2023-12-20T06:06:59;14.40;;;5.67;;
6973;SDS011;3527;52.376;8.990;2023-12-20T06:09:27;22.10;;;5.93;;
6973;SDS011;3527;52.376;8.990;2023-12-20T06:11:57;16.73;;;5.30;;
6973;SDS011;3527;52.376;8.990;2023-12-20T06:14:23;20.00;;;5.67;;
6973;SDS011;3527;52.376;8.990;2023-12-20T06:16:50;15.60;;;5.90;;
6973;SDS011;3527;52.376;8.990;2023-12-20T06:19:17;17.73;;;5.30;;
6973;SDS011;3527;52.376;8.990;2023-12-20T06:21:44;19.03;;;5.60;;
6973;SDS011;3527;52.376;8.990;2023-12-20T06:24:11;19.90;;;4.97;;
6973;SDS011;3527;52.376;8.990;2023-12-20T06:26:38;16.87;;;5.10;;
6973;SDS011;3527;52.376;8.990;2023-12-20T06:29:04;18.43;;;5.63;;
6973;SDS011;3527;52.376;8.990;2023-12-20T06:31:31;23.30;;;5.83;;
6973;SDS011;3527;52.376;8.990;2023-12-20T06:33:59;16.57;;;5.27;;
6973;SDS011;3527;52.376;8.990;2023-12-20T06:36:26;19.37;;;5.43;;
6973;SDS011;3527;52.376;8.990;2023-12-20T06:38:53;15.63;;;4.53;;
6973;SDS011;3527;52.376;8.990;2023-12-20T06:41:20;22.73;;;4.83;;
6973;SDS011;3527;52.376;8.990;2023-12-20T06:43:46;21.03;;;6.00;;
6973;SDS011;3527;52.376;8.990;2023-12-20T06:46:16;14.10;;;4.77;;
6973;SDS011;3527;52.376;8.990;2023-12-20T06:48:44;12.87;;;4.60;;
6973;SDS011;3527;52.376;8.990;2023-12-20T06:51:14;19.43;;;5.03;;
6973;SDS011;3527;52.376;8.990;2023-12-20T06:53:41;17.63;;;5.20;;
6973;SDS011;3527;52.376;8.990;2023-12-20T06:56:10;17.03;;;5.00;;
6973;SDS011;3527;52.376;8.990;2023-12-20T06:58:37;22.03;;;5.07;;
6973;SDS011;3527;52.376;8.990;2023-12-20T07:01:04;21.50;;;5.47;;
6973;SDS011;3527;52.376;8.990;2023-12-20T07:03:31;28.60;;;5.70;;
6973;SDS011;3527;52.376;8.990;2023-12-20T07:05:58;24.37;;;5.63;;
6973;SDS011;3527;52.376;8.990;2023-12-20T07:08:25;17.17;;;5.57;;
6973;SDS011;3527;52.376;8.990;2023-12-20T07:10:52;19.90;;;5.33;;
6973;SDS011;3527;52.376;8.990;2023-12-20T07:13:19;17.13;;;5.47;;
6973;SDS011;3527;52.376;8.990;2023-12-20T07:15:46;18.60;;;5.33;;
6973;SDS011;3527;52.376;8.990;2023-12-20T07:18:13;16.47;;;4.80;;
6973;SDS011;3527;52.376;8.990;2023-12-20T07:20:39;16.53;;;5.17;;
6973;SDS011;3527;52.376;8.990;2023-12-20T07:23:06;19.17;;;6.73;;
6973;SDS011;3527;52.376;8.990;2023-12-20T07:25:33;25.70;;;6.47;;
6973;SDS011;3527;52.376;8.990;2023-12-20T07:28:00;20.10;;;6.07;;
6973;SDS011;3527;52.376;8.990;2023-12-20T07:30:27;16.40;;;6.13;;
6973;SDS011;3527;52.376;8.990;2023-12-20T07:32:54;17.10;;;6.03;;
6973;SDS011;3527;52.376;8.990;2023-12-20T07:35:21;20.67;;;7.13;;
6973;SDS011;3527;52.376;8.990;2023-12-20T07:37:48;22.97;;;6.40;;
6973;SDS011;3527;52.376;8.990;2023-12-20T07:40:14;15.67;;;6.23;;
6973;SDS011;3527;52.376;8.990;2023-12-20T07:42:43;24.93;;;6.40;;
6973;SDS011;3527;52.376;8.990;2023-12-20T07:45:10;19.23;;;7.87;;
6973;SDS011;3527;52.376;8.990;2023-12-20T07:47:38;18.27;;;6.40;;
6973;SDS011;3527;52.376;8.990;2023-12-20T07:50:05;21.27;;;7.00;;
6973;SDS011;3527;52.376;8.990;2023-12-20T07:52:32;24.73;;;6.87;;
6973;SDS011;3527;52.376;8.990;2023-12-20T07:54:58;20.23;;;6.40;;
6973;SDS011;3527;52.376;8.990;2023-12-20T07:57:28;26.00;;;7.13;;
6973;SDS011;3527;52.376;8.990;2023-12-20T07:59:55;24.57;;;7.23;;
6973;SDS011;3527;52.376;8.990;2023-12-20T08:02:21;19.03;;;7.67;;
6973;SDS011;3527;52.376;8.990;2023-12-20T08:04:48;21.07;;;7.53;;
6973;SDS011;3527;52.376;8.990;2023-12-20T08:07:15;20.80;;;7.63;;
6973;SDS011;3527;52.376;8.990;2023-12-20T08:09:42;23.53;;;8.13;;
6973;SDS011;3527;52.376;8.990;2023-12-20T08:12:10;24.70;;;8.00;;
6973;SDS011;3527;52.376;8.990;2023-12-20T08:14:37;23.23;;;8.23;;
6973;SDS011;3527;52.376;8.990;2023-12-20T08:17:04;20.77;;;7.43;;
6973;SDS011;3527;52.376;8.990;2023-12-20T08:19:33;23.63;;;7.33;;
6973;SDS011;3527;52.376;8.990;2023-12-20T08:21:59;20.87;;;7.90;;
6973;SDS011;3527;52.376;8.990;2023-12-20T08:24:26;24.10;;;7.90;;
6973;SDS011;3527;52.376;8.990;2023-12-20T08:26:53;25.40;;;7.43;;
6973;SDS011;3527;52.376;8.990;2023-12-20T08:29:20;19.43;;;7.10;;
6973;SDS011;3527;52.376;8.990;2023-12-20T08:31:51;20.00;;;7.60;;
6973;SDS011;3527;52.376;8.990;2023-12-20T08:34:18;20.47;;;7.87;;
6973;SDS011;3527;52.376;8.990;2023-12-20T08:36:45;17.00;;;7.27;;
6973;SDS011;3527;52.376;8.990;2023-12-20T08:39:12;18.27;;;6.27;;
6973;SDS011;3527;52.376;8.990;2023-12-20T08:41:39;20.73;;;7.60;;
6973;SDS011;3527;52.376;8.990;2023-12-20T08:44:06;18.83;;;6.23;;
6973;SDS011;3527;52.376;8.990;2023-12-20T08:46:33;18.50;;;6.87;;
6973;SDS011;3527;52.376;8.990;2023-12-20T08:49:00;20.27;;;6.83;;
6973;SDS011;3527;52.376;8.990;2023-12-20T08:51:27;21.17;;;6.80;;
6973;SDS011;3527;52.376;8.990;2023-12-20T08:53:54;21.60;;;8.23;;
6973;SDS011;3527;52.376;8.990;2023-12-20T08:56:21;21.33;;;6.80;;
6973;SDS011;3527;52.376;8.990;2023-12-20T08:58:48;21.53;;;7.23;;
6973;SDS011;3527;52.376;8.990;2023-12-20T09:01:15;23.43;;;7.13;;
6973;SDS011;3527;52.376;8.990;2023-12-20T09:03:42;23.60;;;7.53;;
6973;SDS011;3527;52.376;8.990;2023-12-20T09:06:09;18.83;;;6.60;;
6973;SDS011;3527;52.376;8.990;2023-12-20T09:08:36;22.10;;;7.03;;
6973;SDS011;3527;52.376;8.990;2023-12-20T09:11:03;24.03;;;7.03;;
6973;SDS011;3527;52.376;8.990;2023-12-20T09:13:32;21.63;;;6.83;;
6973;SDS011;3527;52.376;8.990;2023-12-20T09:16:00;23.73;;;7.27;;
6973;SDS011;3527;52.376;8.990;2023-12-20T09:18:27;18.03;;;6.40;;
6973;SDS011;3527;52.376;8.990;2023-12-20T09:20:54;16.60;;;5.77;;
6973;SDS011;3527;52.376;8.990;2023-12-20T09:23:21;18.50;;;5.73;;
6973;SDS011;3527;52.376;8.990;2023-12-20T09:25:48;21.77;;;6.67;;
6973;SDS011;3527;52.376;8.990;2023-12-20T09:28:15;16.73;;;5.73;;
6973;SDS011;3527;52.376;8.990;2023-12-20T09:30:42;17.47;;;5.27;;
6973;SDS011;3527;52.376;8.990;2023-12-20T09:33:09;19.53;;;5.53;;
6973;SDS011;3527;52.376;8.990;2023-12-20T09:35:36;15.53;;;5.60;;
6973;SDS011;3527;52.376;8.990;2023-12-20T09:38:04;20.20;;;6.40;;
6973;SDS011;3527;52.376;8.990;2023-12-20T09:40:30;19.07;;;5.50;;
6973;SDS011;3527;52.376;8.990;2023-12-20T09:43:03;20.97;;;5.40;;
6973;SDS011;3527;52.376;8.990;2023-12-20T09:45:31;18.13;;;6.57;;
6973;SDS011;3527;52.376;8.990;2023-12-20T09:47:58;20.77;;;6.10;;
6973;SDS011;3527;52.376;8.990;2023-12-20T09:50:26;18.20;;;6.00;;
6973;SDS011;3527;52.376;8.990;2023-12-20T09:52:53;20.57;;;5.80;;
6973;SDS011;3527;52.376;8.990;2023-12-20T09:55:23;18.73;;;5.30;;
6973;SDS011;3527;52.376;8.990;2023-12-20T09:57:51;20.00;;;5.83;;
6973;SDS011;3527;52.376;8.990;2023-12-20T10:00:18;18.90;;;5.73;;
6973;SDS011;3527;52.376;8.990;2023-12-20T10:05:16;20.73;;;5.90;;
6973;SDS011;3527;52.376;8.990;2023-12-20T10:07:46;21.03;;;5.83;;
6973;SDS011;3527;52.376;8.990;2023-12-20T10:10:14;17.83;;;5.40;;
6973;SDS011;3527;52.376;8.990;2023-12-20T10:12:44;12.20;;;5.03;;
6973;SDS011;3527;52.376;8.990;2023-12-20T10:15:27;12.97;;;5.17;;
6973;SDS011;3527;52.376;8.990;2023-12-20T10:17:53;14.80;;;5.40;;
6973;SDS011;3527;52.376;8.990;2023-12-20T10:20:27;18.43;;;5.07;;
6973;SDS011;3527;52.376;8.990;2023-12-20T10:22:56;16.73;;;5.43;;
6973;SDS011;3527;52.376;8.990;2023-12-20T10:25:23;15.77;;;5.97;;
6973;SDS011;3527;52.376;8.990;2023-12-20T10:28:08;16.13;;;5.27;;
6973;SDS011;3527;52.376;8.990;2023-12-20T10:30:36;12.60;;;5.00;;
6973;SDS011;3527;52.376;8.990;2023-12-20T10:33:05;10.20;;;4.50;;
6973;SDS011;3527;52.376;8.990;2023-12-20T10:35:32;14.70;;;4.60;;
6973;SDS011;3527;52.376;8.990;2023-12-20T10:37:59;15.27;;;5.20;;
6973;SDS011;3527;52.376;8.990;2023-12-20T10:40:28;14.80;;;4.50;;
6973;SDS011;3527;52.376;8.990;2023-12-20T10:42:56;17.53;;;4.97;;
6973;SDS011;3527;52.376;8.990;2023-12-20T10:45:24;20.13;;;4.93;;
6973;SDS011;3527;52.376;8.990;2023-12-20T10:47:52;15.87;;;5.17;;
6973;SDS011;3527;52.376;8.990;2023-12-20T10:50:20;16.87;;;4.70;;
6973;SDS011;3527;52.376;8.990;2023-12-20T10:52:47;12.80;;;4.80;;
6973;SDS011;3527;52.376;8.990;2023-12-20T10:55:14;12.20;;;4.60;;
6973;SDS011;3527;52.376;8.990;2023-12-20T10:57:41;17.80;;;4.60;;
6973;SDS011;3527;52.376;8.990;2023-12-20T11:00:09;15.27;;;4.97;;
6973;SDS011;3527;52.376;8.990;2023-12-20T11:02:39;14.50;;;4.57;;
6973;SDS011;3527;52.376;8.990;2023-12-20T11:05:18;13.87;;;4.73;;
6973;SDS011;3527;52.376;8.990;2023-12-20T11:07:50;13.90;;;4.90;;
6973;SDS011;3527;52.376;8.990;2023-12-20T11:10:19;22.30;;;4.90;;
6973;SDS011;3527;52.376;8.990;2023-12-20T11:12:53;11.33;;;4.27;;
6973;SDS011;3527;52.376;8.990;2023-12-20T11:15:21;11.67;;;4.80;;
6973;SDS011;3527;52.376;8.990;2023-12-20T11:17:58;19.73;;;4.57;;
6973;SDS011;3527;52.376;8.990;2023-12-20T11:20:36;13.03;;;4.00;;
6973;SDS011;3527;52.376;8.990;2023-12-20T11:23:03;15.87;;;4.03;;
6973;SDS011;3527;52.376;8.990;2023-12-20T11:25:33;9.53;;;3.80;;
6973;SDS011;3527;52.376;8.990;2023-12-20T11:28:21;12.63;;;4.43;;
6973;SDS011;3527;52.376;8.990;2023-12-20T11:30:52;3.57;;;1.73;;
6973;SDS011;3527;52.376;8.990;2023-12-20T11:33:26;5.40;;;1.17;;
6973;SDS011;3527;52.376;8.990;2023-12-20T11:35:56;5.53;;;1.00;;
6973;SDS011;3527;52.376;8.990;2023-12-20T11:38:23;4.43;;;0.90;;
6973;SDS011;3527;52.376;8.990;2023-12-20T11:40:51;4.27;;;1.07;;
6973;SDS011;3527;52.376;8.990;2023-12-20T11:43:32;4.50;;;1.10;;
6973;SDS011;3527;52.376;8.990;2023-12-20T11:46:05;4.47;;;1.10;;
6973;SDS011;3527;52.376;8.990;2023-12-20T11:48:34;5.80;;;1.40;;
6973;SDS011;3527;52.376;8.990;2023-12-20T11:51:01;3.20;;;1.47;;
6973;SDS011;3527;52.376;8.990;2023-12-20T11:53:30;9.77;;;1.50;;
6973;SDS011;3527;52.376;8.990;2023-12-20T11:56:00;7.53;;;1.80;;
6973;SDS011;3527;52.376;8.990;2023-12-20T11:58:29;9.97;;;1.87;;
6973;SDS011;3527;52.376;8.990;2023-12-20T12:00:57;6.00;;;1.30;;
6973;SDS011;3527;52.376;8.990;2023-12-20T12:03:24;5.17;;;1.30;;
6973;SDS011;3527;52.376;8.990;2023-12-20T12:05:51;6.40;;;1.77;;
6973;SDS011;3527;52.376;8.990;2023-12-20T12:08:18;7.93;;;1.70;;
6973;SDS011;3527;52.376;8.990;2023-12-20T12:10:45;5.50;;;1.20;;
6973;SDS011;3527;52.376;8.990;2023-12-20T12:13:12;4.23;;;1.40;;
6973;SDS011;3527;52.376;8.990;2023-12-20T12:15:41;9.53;;;1.67;;
6973;SDS011;3527;52.376;8.990;2023-12-20T12:18:08;4.30;;;1.67;;
6973;SDS011;3527;52.376;8.990;2023-12-20T12:20:38;5.47;;;1.63;;
6973;SDS011;3527;52.376;8.990;2023-12-20T12:23:05;4.27;;;1.40;;
6973;SDS011;3527;52.376;8.990;2023-12-20T12:25:34;10.00;;;1.90;;
6973;SDS011;3527;52.376;8.990;2023-12-20T12:28:06;5.53;;;1.40;;
6973;SDS011;3527;52.376;8.990;2023-12-20T12:30:33;7.00;;;2.20;;
6973;SDS011;3527;52.376;8.990;2023-12-20T12:33:11;5.30;;;1.83;;
6973;SDS011;3527;52.376;8.990;2023-12-20T12:35:38;6.23;;;1.40;;
6973;SDS011;3527;52.376;8.990;2023-12-20T12:38:07;2.87;;;1.60;;
6973;SDS011;3527;52.376;8.990;2023-12-20T12:40:34;6.50;;;1.37;;
6973;SDS011;3527;52.376;8.990;2023-12-20T12:43:02;6.17;;;1.70;;
6973;SDS011;3527;52.376;8.990;2023-12-20T12:45:29;4.33;;;1.63;;
6973;SDS011;3527;52.376;8.990;2023-12-20T12:47:56;4.33;;;1.70;;
6973;SDS011;3527;52.376;8.990;2023-12-20T12:50:25;6.07;;;1.90;;
6973;SDS011;3527;52.376;8.990;2023-12-20T12:52:52;5.53;;;1.53;;
6973;SDS011;3527;52.376;8.990;2023-12-20T12:55:18;6.10;;;1.97;;
6973;SDS011;3527;52.376;8.990;2023-12-20T12:57:46;5.70;;;1.67;;
6973;SDS011;3527;52.376;8.990;2023-12-20T13:00:13;7.63;;;1.60;;
6973;SDS011;3527;52.376;8.990;2023-12-20T13:02:41;5.83;;;1.50;;
6973;SDS011;3527;52.376;8.990;2023-12-20T13:05:08;5.33;;;1.80;;
6973;SDS011;3527;52.376;8.990;2023-12-20T13:07:36;6.27;;;2.33;;
6973;SDS011;3527;52.376;8.990;2023-12-20T13:10:04;4.87;;;2.10;;
6973;SDS011;3527;52.376;8.990;2023-12-20T13:12:32;4.47;;;1.80;;
6973;SDS011;3527;52.376;8.990;2023-12-20T13:14:59;6.27;;;1.63;;
6973;SDS011;3527;52.376;8.990;2023-12-20T13:17:27;7.27;;;2.00;;
6973;SDS011;3527;52.376;8.990;2023-12-20T13:19:57;8.03;;;2.20;;
6973;SDS011;3527;52.376;8.990;2023-12-20T13:22:24;5.47;;;2.37;;
6973;SDS011;3527;52.376;8.990;2023-12-20T13:24:51;5.53;;;2.17;;
6973;SDS011;3527;52.376;8.990;2023-12-20T13:27:18;10.93;;;3.00;;
6973;SDS011;3527;52.376;8.990;2023-12-20T13:29:45;8.50;;;2.87;;
6973;SDS011;3527;52.376;8.990;2023-12-20T13:32:12;8.43;;;2.30;;
6973;SDS011;3527;52.376;8.990;2023-12-20T13:34:39;8.50;;;2.47;;
6973;SDS011;3527;52.376;8.990;2023-12-20T13:37:06;8.60;;;2.33;;
6973;SDS011;3527;52.376;8.990;2023-12-20T13:39:32;7.23;;;2.20;;
6973;SDS011;3527;52.376;8.990;2023-12-20T13:42:00;8.90;;;2.00;;
6973;SDS011;3527;52.376;8.990;2023-12-20T13:44:27;9.80;;;2.50;;
6973;SDS011;3527;52.376;8.990;2023-12-20T13:46:53;8.83;;;2.07;;
6973;SDS011;3527;52.376;8.990;2023-12-20T13:49:20;5.87;;;2.23;;
6973;SDS011;3527;52.376;8.990;2023-12-20T13:51:48;4.83;;;1.80;;
6973;SDS011;3527;52.376;8.990;2023-12-20T13:54:14;3.53;;;1.70;;
6973;SDS011;3527;52.376;8.990;2023-12-20T13:56:43;5.60;;;1.80;;
6973;SDS011;3527;52.376;8.990;2023-12-20T13:59:28;8.43;;;1.90;;
6973;SDS011;3527;52.376;8.990;2023-12-20T14:01:54;8.70;;;1.97;;
6973;SDS011;3527;52.376;8.990;2023-12-20T14:04:23;6.40;;;1.97;;
6973;SDS011;3527;52.376;8.990;2023-12-20T14:07:08;9.73;;;1.70;;
6973;SDS011;3527;52.376;8.990;2023-12-20T14:09:37;6.97;;;1.80;;
6973;SDS011;3527;52.376;8.990;2023-12-20T14:12:04;10.17;;;2.10;;
6973;SDS011;3527;52.376;8.990;2023-12-20T14:14:31;6.90;;;2.00;;
6973;SDS011;3527;52.376;8.990;2023-12-20T14:16:58;5.40;;;2.13;;
6973;SDS011;3527;52.376;8.990;2023-12-20T14:19:24;8.70;;;1.77;;
6973;SDS011;3527;52.376;8.990;2023-12-20T14:21:51;6.47;;;2.17;;
6973;SDS011;3527;52.376;8.990;2023-12-20T14:24:18;9.03;;;2.30;;
6973;SDS011;3527;52.376;8.990;2023-12-20T14:26:44;6.63;;;2.17;;
6973;SDS011;3527;52.376;8.990;2023-12-20T14:29:11;7.53;;;2.03;;
6973;SDS011;3527;52.376;8.990;2023-12-20T14:31:38;7.23;;;1.93;;
6973;SDS011;3527;52.376;8.990;2023-12-20T14:34:06;8.37;;;2.00;;
6973;SDS011;3527;52.376;8.990;2023-12-20T14:36:34;8.93;;;2.20;;
6973;SDS011;3527;52.376;8.990;2023-12-20T14:39:00;6.90;;;2.03;;
6973;SDS011;3527;52.376;8.990;2023-12-20T14:41:29;7.93;;;2.20;;
6973;SDS011;3527;52.376;8.990;2023-12-20T14:43:58;13.97;;;2.40;;
6973;SDS011;3527;52.376;8.990;2023-12-20T14:46:26;9.77;;;2.43;;
6973;SDS011;3527;52.376;8.990;2023-12-20T14:48:53;9.67;;;2.20;;
6973;SDS011;3527;52.376;8.990;2023-12-20T14:51:20;7.93;;;2.20;;
6973;SDS011;3527;52.376;8.990;2023-12-20T14:53:46;9.83;;;2.20;;
6973;SDS011;3527;52.376;8.990;2023-12-20T14:56:13;5.40;;;1.67;;
6973;SDS011;3527;52.376;8.990;2023-12-20T14:58:41;8.97;;;1.83;;
6973;SDS011;3527;52.376;8.990;2023-12-20T15:01:08;4.80;;;1.87;;
6973;SDS011;3527;52.376;8.990;2023-12-20T15:03:35;7.47;;;1.83;;
6973;SDS011;3527;52.376;8.990;2023-12-20T15:06:02;11.03;;;2.13;;
6973;SDS011;3527;52.376;8.990;2023-12-20T15:08:29;7.33;;;1.67;;
6973;SDS011;3527;52.376;8.990;2023-12-20T15:10:57;8.77;;;2.03;;